Details From LESA - Salamanca
To LPMA - Madeira
Flight Number -
Tags Generated
Created
Modified
Stats Distance 734 nm / 1,359 km
Max Altitude 0 ft / 0 m
Waypoints 4
Social Downloads 0
Likes 0
Share VATSIM

Download

Looking for another format? Having issues loading an existing format? Contact us
Advertisement - Login to hide

Notes

Generated

Route

LESA ESP11 MAD LPMA

ID Type Via Altitude Latitude Longitude Leg Dist Tot Dist Heading (true) Name
O LESA APT - 0 ft / 0 m 40.94979˚ -5.51276˚ - 0 nm - -
ESP11 FIX - 0 ft / 0 m 38.59988˚ -9.11736˚ 218 nm 218 nm 231° / 229° -
MAD NDB - 0 ft / 0 m 32.74813˚ -16.70651˚ 510 nm 728 nm 229° / 224° MADEIRA NDB
O LPMA APT - 0 ft / 0 m 32.68900˚ -16.78409˚ 5 nm 733 nm 228° / 228° -

Altitude Profile

Advertisement - Login to hide

Weather


0- 5 10 15 20 25 30 35+ Temperature / ° C

Clouds and Precipitation
Forecast for 2017-12-15 12:00 UTC. Updated an hour ago

Ground ~20,000 ft ~40,000 ft Winds

LESA

Details ICAO LESA (SLM)
Name Salamanca
Region Spain
Timezone Europe/Madrid (UTC+1.0)
Stats Elevation 2,595 ft / 791 m (AMSL)
Location 40.952150° -5.501645°
Runways 2
Magnetic Variation 1.292° W

METAR

LESA 150830Z 28008KT 2500 DZ BKN008 08/07 Q1012

Decode

TAF

TAF LESA 150500Z 1506/1606 29012KT 9999 BKN010 TX09/1515Z TNM03/1606Z PROB30 TEMPO 1506/1510 2000 BR BECMG 1515/1517 SCT050 PROB40 TEMPO 1506/1509 3000 RA BECMG 1517/1519 VRB05KT

Decode

Departure Runways

ID Width Length Bearing (true) Bearing (mag) Surface Threshold Offset Overrun Length
03 197 ft / 60 m 8,252 ft / 2,515 m 27.81° 29.10° Asphalt 0 ft / 0 m 902 ft / 275 m
08 400 ft / 122 m 6,601 ft / 2,012 m 74.07° 75.36° Dirt 0 ft / 0 m 0 ft / 0 m
21 197 ft / 60 m 8,252 ft / 2,515 m 207.82° 209.11° Asphalt 0 ft / 0 m 902 ft / 275 m
26 400 ft / 122 m 6,601 ft / 2,012 m 254.09° 255.38° Dirt 0 ft / 0 m 0 ft / 0 m

LPMA

Details ICAO LPMA (FNC)
Name Madeira
Region Portugal
Timezone Atlantic/Madeira (UTC+0.0)
Stats Elevation 192 ft / 59 m (AMSL)
Location 32.697704° -16.774449°
Runways 1
Magnetic Variation 4.981° W

METAR

LPMA 150830Z VRB02KT 9999 FEW015 SCT060 17/13 Q1026

Decode

TAF

TAF LPMA 150500Z 1506/1606 VRB05KT 9999 SCT015 TEMPO 1506/1606 36010KT 6000 -RA BKN015

Decode

Destination Runways

ID Width Length Bearing (true) Bearing (mag) Surface Threshold Offset Overrun Length
05 141 ft / 43 m 8,683 ft / 2,647 m 42.98° 47.96° Asphalt 472 ft / 144 m 0 ft / 0 m
23 141 ft / 43 m 8,683 ft / 2,647 m 222.99° 227.97° Asphalt 466 ft / 142 m 0 ft / 0 m